Time;durP1;ratioP1;P1;durP2;ratioP2;P2;SDS_P1;SDS_P2;PMS_P1;PMS_P2;Temp;Humidity;BMP_temperature;BMP_pressure;BME280_temperature;BME280_humidity;BME280_pressure;Samples;Min_cycle;Max_cycle;Signal;HPM_P1;HPM_P2
2021/05/24 00:00:46;;;;;;;4.15;1.52;;;;;;;4.87;86.22;98396.97;5043567;28;20079;-64
2021/05/24 00:03:12;;;;;;;1.27;0.98;;;;;;;4.99;85.87;98394.31;5043508;28;20021;-64
2021/05/24 00:05:38;;;;;;;1.40;1.13;;;;;;;5.01;84.92;98395.22;5043444;28;20021;-64
2021/05/24 00:08:04;;;;;;;2.00;1.10;;;;;;;4.93;85.07;98386.53;5053220;28;20017;-64
2021/05/24 00:10:32;;;;;;;3.63;1.20;;;;;;;4.81;84.60;98392.59;5067325;28;20046;-64
2021/05/24 00:13:02;;;;;;;4.65;1.40;;;;;;;4.90;84.22;98396.97;5067253;28;20021;-64
2021/05/24 00:15:37;;;;;;;2.88;1.20;;;;;;;4.82;84.26;98396.09;5067453;28;20044;-64
2021/05/24 00:18:03;;;;;;;4.60;1.30;;;;;;;4.74;85.20;98396.09;5067159;28;20031;-64
2021/05/24 00:20:32;;;;;;;2.88;1.33;;;;;;;4.72;84.44;98389.16;5067086;28;20315;-64
2021/05/24 00:22:58;;;;;;;1.75;1.10;;;;;;;4.70;84.61;98385.66;5067092;28;20094;-64
2021/05/24 00:25:23;;;;;;;2.33;1.25;;;;;;;4.77;84.68;98374.38;5066669;28;20037;-64
2021/05/24 00:27:49;;;;;;;2.28;1.00;;;;;;;4.72;83.65;98381.34;5067038;28;20052;-64
2021/05/24 00:30:16;;;;;;;1.35;1.10;;;;;;;4.76;84.98;98388.28;5066660;28;20029;-64
2021/05/24 00:32:42;;;;;;;1.77;1.23;;;;;;;4.77;83.01;98396.09;5066924;28;20032;-64
2021/05/24 00:35:09;;;;;;;3.60;1.10;;;;;;;4.66;83.53;98396.97;5066819;28;20082;-64
2021/05/24 00:37:35;;;;;;;1.83;1.13;;;;;;;4.62;84.30;98390.03;5065562;28;20037;-64
2021/05/24 00:40:02;;;;;;;2.40;1.13;;;;;;;4.60;84.46;98391.75;5062477;28;20064;-65
2021/05/24 00:42:27;;;;;;;3.45;1.20;;;;;;;4.55;83.77;98383.94;5066720;28;20028;-64
2021/05/24 00:44:53;;;;;;;1.98;1.00;;;;;;;4.43;83.84;98374.38;5060018;28;20030;-64
2021/05/24 00:47:18;;;;;;;3.53;1.10;;;;;;;4.36;84.46;98372.63;5048708;28;20281;-64
2021/05/24 00:49:44;;;;;;;4.40;1.00;;;;;;;4.40;84.49;98369.16;5053974;28;20024;-64
2021/05/24 00:52:12;;;;;;;2.00;1.10;;;;;;;4.23;84.84;98360.47;5066516;28;20029;-64
2021/05/24 00:54:37;;;;;;;2.08;1.40;;;;;;;4.30;85.64;98362.22;5066743;28;20242;-64
2021/05/24 00:57:04;;;;;;;3.20;1.40;;;;;;;4.28;85.20;98356.13;5066449;28;20056;-64
2021/05/24 00:59:29;;;;;;;3.63;0.93;;;;;;;4.36;85.27;98357.00;5066378;28;20084;-64
2021/05/24 01:01:55;;;;;;;2.45;1.02;;;;;;;4.31;85.09;98348.31;5066496;28;20202;-64
2021/05/24 01:04:21;;;;;;;5.97;1.48;;;;;;;4.33;85.03;98343.97;5066025;28;20021;-64
2021/05/24 01:06:48;;;;;;;5.40;1.58;;;;;;;4.25;84.32;98348.31;5066274;28;20029;-64
2021/05/24 01:09:16;;;;;;;2.45;1.33;;;;;;;4.14;85.26;98344.84;5066225;28;20036;-64
2021/05/24 01:11:41;;;;;;;2.55;1.23;;;;;;;4.20;85.91;98350.03;5066225;28;20093;-64
2021/05/24 01:14:07;;;;;;;1.85;1.20;;;;;;;4.17;84.79;98339.63;5066113;28;20224;-64
2021/05/24 01:16:33;;;;;;;1.67;1.20;;;;;;;4.15;84.62;98336.13;5066080;28;20021;-64
2021/05/24 01:18:58;;;;;;;3.90;1.40;;;;;;;4.21;85.13;98340.50;5065712;28;20082;-64
2021/05/24 01:21:24;;;;;;;8.45;1.58;;;;;;;4.24;84.75;98336.16;5061921;28;20021;-64
2021/05/24 01:23:51;;;;;;;5.28;1.45;;;;;;;4.17;84.80;98334.41;5045809;28;20025;-64
2021/05/24 01:26:19;;;;;;;2.72;1.27;;;;;;;4.15;84.84;98315.31;5045859;28;20091;-64
2021/05/24 01:28:45;;;;;;;2.67;1.65;;;;;;;4.16;84.38;98324.00;5045917;28;20131;-64
2021/05/24 01:31:11;;;;;;;3.13;1.45;;;;;;;4.10;84.53;98314.44;5047687;28;20033;-64
2021/05/24 01:33:37;;;;;;;2.28;1.25;;;;;;;4.10;84.50;98296.22;5050726;28;20029;-64
2021/05/24 01:36:05;;;;;;;4.70;1.75;;;;;;;3.99;84.73;98297.94;5045780;28;20033;-64
2021/05/24 01:38:32;;;;;;;3.20;1.52;;;;;;;4.00;84.50;98299.69;5045948;28;20264;-64
2021/05/24 01:40:58;;;;;;;2.15;1.05;;;;;;;4.03;84.49;98302.31;5058920;28;20044;-64
2021/05/24 01:43:28;;;;;;;1.52;1.02;;;;;;;4.07;83.19;98296.22;5065614;28;20231;-64
2021/05/24 01:45:53;;;;;;;1.27;1.10;;;;;;;4.00;84.41;98291.88;5065504;28;20029;-64
2021/05/24 01:48:19;;;;;;;1.80;1.10;;;;;;;3.85;84.47;98283.16;5064322;28;20063;-64
2021/05/24 01:50:44;;;;;;;3.47;1.17;;;;;;;3.81;84.85;98281.44;5053846;28;20127;-64
2021/05/24 01:53:10;;;;;;;2.78;1.20;;;;;;;3.77;85.63;98285.75;5046586;28;20025;-64
2021/05/24 01:55:35;;;;;;;3.50;1.42;;;;;;;3.83;85.45;98290.97;5045407;28;20029;-65
2021/05/24 01:58:02;;;;;;;1.42;1.10;;;;;;;3.85;85.80;98294.47;5045351;28;20056;-65
2021/05/24 02:00:27;;;;;;;1.80;1.30;;;;;;;3.86;85.05;98290.97;5053664;28;20020;-65
2021/05/24 02:02:54;;;;;;;1.20;1.02;;;;;;;3.89;85.42;98279.72;5065124;28;20025;-65
2021/05/24 02:05:21;;;;;;;2.08;1.27;;;;;;;3.89;84.85;98285.78;5065056;28;20048;-65
2021/05/24 02:07:48;;;;;;;3.03;1.42;;;;;;;3.76;85.15;98284.03;5065130;28;20138;-65
2021/05/24 02:10:17;;;;;;;2.58;0.90;;;;;;;3.84;83.80;98277.13;5058416;28;20021;-65
2021/05/24 02:12:42;;;;;;;1.35;1.05;;;;;;;3.77;84.54;98275.34;5045023;28;20021;-65
2021/05/24 02:15:09;;;;;;;1.85;1.10;;;;;;;3.69;84.55;98271.88;5044980;28;20021;-65
2021/05/24 02:17:35;;;;;;;2.03;1.13;;;;;;;3.75;84.57;98271.88;5044937;28;20040;-65
2021/05/24 02:20:00;;;;;;;1.88;1.10;;;;;;;3.67;83.73;98273.59;5048874;28;20024;-65
2021/05/24 02:22:26;;;;;;;1.60;1.10;;;;;;;3.62;84.04;98264.94;5060490;28;20025;-65
2021/05/24 02:24:51;;;;;;;1.30;1.10;;;;;;;3.59;84.96;98259.72;5044725;28;20069;-65
2021/05/24 02:27:17;;;;;;;2.53;1.20;;;;;;;3.54;84.77;98260.59;5044761;28;20029;-65
2021/05/24 02:29:42;;;;;;;1.13;1.00;;;;;;;3.50;84.90;98264.00;5044105;28;20036;-65
2021/05/24 02:32:08;;;;;;;1.05;0.93;;;;;;;3.54;85.09;98264.03;5051485;28;20316;-65
2021/05/24 02:34:34;;;;;;;1.77;1.40;;;;;;;3.37;84.80;98257.94;5064615;28;20025;-65
2021/05/24 02:37:00;;;;;;;2.70;1.20;;;;;;;3.40;85.15;98265.75;5064575;28;20021;-65
2021/05/24 02:39:25;;;;;;;1.45;0.95;;;;;;;3.43;84.91;98257.06;5064524;28;20084;-65
2021/05/24 02:41:51;;;;;;;1.42;1.17;;;;;;;3.49;84.68;98268.38;5064231;28;20087;-65
2021/05/24 02:44:17;;;;;;;2.17;1.13;;;;;;;3.47;84.52;98264.88;5049971;28;20347;-65
2021/05/24 02:46:42;;;;;;;1.75;1.35;;;;;;;3.46;85.08;98257.97;5054668;28;20025;-65
2021/05/24 02:49:08;;;;;;;1.65;1.30;;;;;;;3.43;85.32;98247.53;5064013;28;20021;-65
2021/05/24 02:51:34;;;;;;;2.47;1.60;;;;;;;3.36;85.25;98244.91;5064576;28;20035;-65
2021/05/24 02:54:00;;;;;;;2.47;1.15;;;;;;;3.47;84.97;98243.19;5064473;28;20130;-65
2021/05/24 02:56:25;;;;;;;1.60;1.13;;;;;;;3.42;84.47;98240.59;5064227;28;20033;-64
2021/05/24 02:58:50;;;;;;;1.77;1.10;;;;;;;3.33;84.38;98240.59;5064283;28;20029;-64
2021/05/24 03:01:16;;;;;;;1.10;1.00;;;;;;;3.33;84.87;98237.97;5062660;28;20025;-64
2021/05/24 03:03:42;;;;;;;2.83;1.20;;;;;;;3.30;85.05;98234.50;5063757;28;20030;-64
2021/05/24 03:06:07;;;;;;;1.30;0.90;;;;;;;3.27;84.56;98235.38;5064051;28;20029;-64
2021/05/24 03:08:33;;;;;;;2.05;1.40;;;;;;;3.20;85.05;98238.78;5064037;28;20070;-64
2021/05/24 03:10:59;;;;;;;2.03;1.40;;;;;;;3.19;85.72;98239.66;5064034;28;20037;-64
2021/05/24 03:13:26;;;;;;;5.63;1.60;;;;;;;3.28;86.38;98247.50;5063988;28;20032;-64
2021/05/24 03:15:55;;;;;;;1.38;0.75;;;;;;;3.36;85.14;98244.91;5049697;28;20072;-64
2021/05/24 03:18:21;;;;;;;2.53;1.08;;;;;;;3.34;84.57;98237.09;5043948;28;20080;-64
2021/05/24 03:20:47;;;;;;;1.42;1.17;;;;;;;3.26;84.27;98238.81;5043963;28;20049;-64
2021/05/24 03:23:13;;;;;;;1.75;1.00;;;;;;;3.23;84.85;98244.00;5043911;28;20025;-64
2021/05/24 03:25:38;;;;;;;1.65;1.10;;;;;;;3.17;84.40;98232.72;5043675;28;20057;-64
2021/05/24 03:28:04;;;;;;;3.85;1.00;;;;;;;3.13;84.34;98231.84;5043849;28;20318;-64
2021/05/24 03:30:29;;;;;;;1.15;0.82;;;;;;;3.21;84.26;98234.47;5047730;28;20017;-64
2021/05/24 03:32:55;;;;;;;1.73;0.82;;;;;;;3.11;84.59;98228.38;5063785;28;20058;-64
2021/05/24 03:35:21;;;;;;;1.17;0.95;;;;;;;3.10;84.55;98226.63;5063511;28;20013;-64
2021/05/24 03:37:47;;;;;;;1.98;1.20;;;;;;;3.09;84.64;98224.00;5063743;28;20027;-64
2021/05/24 03:40:16;;;;;;;2.80;1.13;;;;;;;3.04;84.98;98236.16;5063746;28;20250;-64
2021/05/24 03:42:41;;;;;;;1.73;1.25;;;;;;;3.10;85.42;98223.19;5067661;28;20024;-64
2021/05/24 03:45:11;;;;;;;1.35;1.10;;;;;;;3.13;85.09;98226.63;5052188;28;20254;-64
2021/05/24 03:47:37;;;;;;;3.80;1.23;;;;;;;3.13;85.27;98224.03;5047775;28;20043;-64
2021/05/24 03:50:04;;;;;;;1.50;1.00;;;;;;;3.10;85.00;98221.41;5047717;28;20048;-64
2021/05/24 03:52:29;;;;;;;1.63;1.15;;;;;;;3.12;84.80;98224.91;5047698;28;20324;-64
2021/05/24 03:54:55;;;;;;;1.88;0.80;;;;;;;3.21;84.68;98222.34;5047644;28;20020;-64
2021/05/24 03:57:20;;;;;;;1.55;0.98;;;;;;;3.28;84.53;98231.00;5047623;28;20314;-64
2021/05/24 03:59:46;;;;;;;5.93;1.33;;;;;;;3.20;84.50;98223.19;5052878;28;20040;-64
2021/05/24 04:02:11;;;;;;;1.75;1.08;;;;;;;3.31;83.98;98226.69;5067495;28;20084;-64
2021/05/24 04:04:38;;;;;;;1.13;0.80;;;;;;;3.25;84.65;98226.69;5067338;28;20093;-64
2021/05/24 04:07:04;;;;;;;4.68;0.90;;;;;;;3.34;85.26;98210.22;5067399;28;20047;-64
2021/05/24 04:09:30;;;;;;;1.30;1.00;;;;;;;3.43;84.76;98215.44;5067346;28;20020;-64
2021/05/24 04:11:55;;;;;;;1.02;0.93;;;;;;;3.49;85.15;98221.53;5067319;28;20091;-64
2021/05/24 04:14:21;;;;;;;4.13;1.10;;;;;;;3.58;84.21;98218.94;5067577;28;20041;-64
2021/05/24 04:16:46;;;;;;;1.42;0.90;;;;;;;3.48;84.16;98229.34;5067242;28;20366;-64
2021/05/24 04:19:13;;;;;;;0.75;0.68;;;;;;;3.64;84.36;98237.16;5050171;28;20021;-64
2021/05/24 04:21:42;;;;;;;2.00;0.85;;;;;;;3.69;83.74;98224.16;5047424;28;20017;-64
2021/05/24 04:24:09;;;;;;;1.75;1.10;;;;;;;3.57;84.36;98227.63;5046882;28;20049;-64
2021/05/24 04:26:35;;;;;;;1.58;0.90;;;;;;;3.74;83.55;98225.88;5047054;28;20029;-64
2021/05/24 04:29:01;;;;;;;2.25;0.80;;;;;;;3.79;84.43;98225.88;5047280;28;20025;-64
2021/05/24 04:31:26;;;;;;;1.17;0.75;;;;;;;3.98;83.77;98220.69;5046976;28;20221;-64
2021/05/24 04:33:52;;;;;;;0.82;0.82;;;;;;;4.00;83.43;98202.47;5046985;28;20143;-64
2021/05/24 04:36:18;;;;;;;2.65;1.40;;;;;;;3.95;84.11;98212.00;5046927;28;20264;-64
2021/05/24 04:38:43;;;;;;;1.52;0.98;;;;;;;4.03;84.41;98211.16;5059242;28;20324;-64
2021/05/24 04:41:09;;;;;;;1.30;0.90;;;;;;;4.09;83.54;98211.13;5066787;28;20029;-64
2021/05/24 04:43:38;;;;;;;1.13;0.70;;;;;;;4.19;82.79;98212.00;5066804;28;20021;-64
2021/05/24 04:46:03;;;;;;;1.85;0.90;;;;;;;4.25;82.56;98215.47;5064528;28;20017;-64
2021/05/24 04:48:28;;;;;;;3.55;0.85;;;;;;;4.22;83.08;98205.06;5066588;28;20025;-64
2021/05/24 04:50:54;;;;;;;5.68;1.05;;;;;;;4.40;83.09;98220.66;5066596;28;20142;-64
2021/05/24 04:53:19;;;;;;;1.30;1.00;;;;;;;4.91;81.50;98211.84;5065777;28;20051;-64
2021/05/24 04:55:45;;;;;;;1.48;0.98;;;;;;;5.17;80.16;98203.88;5066544;28;20332;-64
2021/05/24 04:58:11;;;;;;;1.80;1.10;;;;;;;5.79;77.29;98201.75;5066475;28;20092;-64
2021/05/24 05:00:37;;;;;;;5.00;1.05;;;;;;;5.57;78.48;98201.03;5066382;28;20028;-64
2021/05/24 05:03:02;;;;;;;1.80;1.35;;;;;;;5.41;79.95;98208.97;5061397;28;20017;-64
2021/05/24 05:05:28;;;;;;;1.80;1.20;;;;;;;5.25;80.90;98217.75;5045725;28;20021;-64
2021/05/24 05:07:53;;;;;;;10.55;1.23;;;;;;;5.18;81.03;98216.03;5048545;28;20048;-64
2021/05/24 05:10:19;;;;;;;1.40;1.15;;;;;;;5.33;80.28;98221.19;5046271;28;20089;-64
2021/05/24 05:12:44;;;;;;;1.67;1.00;;;;;;;5.41;80.11;98203.75;5046201;28;20025;-64
2021/05/24 05:15:10;;;;;;;0.70;0.70;;;;;;;5.45;80.52;98195.03;5046246;28;20018;-64
2021/05/24 05:17:35;;;;;;;1.15;0.98;;;;;;;5.56;80.65;98193.19;5044972;28;20316;-64
2021/05/24 05:20:01;;;;;;;1.30;0.82;;;;;;;5.79;79.74;98192.16;5046124;28;20025;-64
2021/05/24 05:22:26;;;;;;;1.35;0.70;;;;;;;6.52;77.14;98184.56;5046141;28;20021;-64
2021/05/24 05:24:52;;;;;;;3.22;1.23;;;;;;;6.25;77.21;98182.22;5045763;28;20041;-64
2021/05/24 05:27:17;;;;;;;2.28;1.20;;;;;;;6.16;79.22;98184.91;5047785;28;20033;-64
2021/05/24 05:29:43;;;;;;;1.25;1.00;;;;;;;6.78;77.79;98185.16;5045948;28;20032;-64
2021/05/24 05:32:08;;;;;;;1.27;1.00;;;;;;;7.24;76.84;98181.06;5046217;28;20021;-64
2021/05/24 05:34:34;;;;;;;0.95;0.95;;;;;;;7.12;76.60;98177.75;5062809;28;20212;-64
2021/05/24 05:37:00;;;;;;;1.70;1.00;;;;;;;7.21;78.01;98175.84;5061689;28;20379;-65
2021/05/24 05:39:26;;;;;;;1.00;0.90;;;;;;;7.25;79.62;98172.34;5045779;28;20089;-65
2021/05/24 05:41:51;;;;;;;2.38;0.95;;;;;;;7.59;77.72;98173.56;5045735;28;20032;-64
2021/05/24 05:44:16;;;;;;;1.65;0.90;;;;;;;7.89;77.87;98173.09;5045580;28;20220;-65
2021/05/24 05:46:42;;;;;;;0.90;0.90;;;;;;;8.47;75.31;98163.38;5045482;28;20320;-65
2021/05/24 05:49:07;;;;;;;0.77;0.60;;;;;;;8.27;75.50;98168.13;5047782;28;20059;-65
2021/05/24 05:51:33;;;;;;;2.10;1.00;;;;;;;8.25;75.51;98164.66;5045525;28;20194;-65
2021/05/24 05:53:58;;;;;;;2.47;1.08;;;;;;;7.90;78.01;98159.09;5047210;28;20022;-65
2021/05/24 05:56:24;;;;;;;1.63;1.02;;;;;;;8.18;77.23;98170.88;5072380;28;20033;-65
2021/05/24 05:58:50;;;;;;;0.63;0.60;;;;;;;8.29;77.55;98158.44;5073858;28;20031;-65
2021/05/24 06:01:16;;;;;;;1.45;0.90;;;;;;;8.35;79.35;98175.81;5085487;28;20095;-65
2021/05/24 06:03:41;;;;;;;1.27;1.05;;;;;;;8.67;79.03;98150.72;5069659;28;20204;-65
2021/05/24 06:06:07;;;;;;;0.98;0.90;;;;;;;8.73;79.51;98150.63;5064215;28;20092;-64
2021/05/24 06:08:32;;;;;;;1.40;0.82;;;;;;;8.96;79.06;98157.16;5055443;28;20033;-64
2021/05/24 06:10:58;;;;;;;1.40;0.90;;;;;;;9.14;78.71;98151.53;5048296;28;20032;-65
2021/05/24 06:13:25;;;;;;;2.35;0.82;;;;;;;9.11;79.48;98148.97;5065044;28;20047;-65
2021/05/24 06:15:50;;;;;;;2.45;1.10;;;;;;;9.34;78.97;98151.97;5064982;28;20338;-65
2021/05/24 06:18:16;;;;;;;2.85;1.45;;;;;;;9.34;79.52;98154.59;5064907;28;20092;-65
2021/05/24 06:20:46;;;;;;;2.00;0.82;;;;;;;9.52;78.97;98148.94;5064895;28;20021;-65
2021/05/24 06:23:12;;;;;;;1.20;0.90;;;;;;;9.68;79.39;98155.56;5065127;28;20030;-65
2021/05/24 06:25:38;;;;;;;1.27;0.88;;;;;;;9.82;79.32;98142.94;5063404;28;20044;-65
2021/05/24 06:28:04;;;;;;;1.33;0.90;;;;;;;9.91;78.72;98142.72;5061961;28;20025;-65
2021/05/24 06:30:29;;;;;;;2.35;1.00;;;;;;;10.12;77.47;98147.47;5046441;28;20107;-65
2021/05/24 06:32:55;;;;;;;1.88;0.85;;;;;;;10.14;80.29;98140.41;5047671;28;20017;-65
2021/05/24 06:35:21;;;;;;;5.38;1.35;;;;;;;10.14;79.65;98132.53;5051284;28;20332;-65
2021/05/24 06:37:47;;;;;;;4.32;0.90;;;;;;;10.28;76.48;98133.03;5052088;28;20080;-65
2021/05/24 06:40:13;;;;;;;1.63;0.80;;;;;;;10.60;76.96;98135.69;5052880;28;20209;-65
2021/05/24 06:42:38;;;;;;;2.40;0.88;;;;;;;10.81;74.72;98141.22;5048098;28;20324;-64
2021/05/24 06:45:05;;;;;;;5.18;1.25;;;;;;;11.10;72.87;98126.34;5047573;28;20032;-65
2021/05/24 06:47:30;;;;;;;1.17;0.85;;;;;;;11.46;73.75;98130.50;5050340;28;20021;-65
2021/05/24 06:49:56;;;;;;;3.60;1.05;;;;;;;11.67;69.06;98120.19;5052334;28;20035;-65
2021/05/24 06:52:21;;;;;;;3.08;1.20;;;;;;;11.94;70.36;98129.84;5062076;28;20024;-65
2021/05/24 06:54:47;;;;;;;2.33;1.02;;;;;;;12.18;69.05;98123.75;5063421;28;20252;-65
2021/05/24 06:57:12;;;;;;;3.17;1.15;;;;;;;12.29;69.88;98121.63;5051916;28;20025;-65
2021/05/24 06:59:38;;;;;;;6.60;1.13;;;;;;;12.41;71.42;98126.44;5043803;28;20048;-65
2021/05/24 07:02:04;;;;;;;5.28;1.27;;;;;;;12.82;69.66;98125.84;5043719;28;20033;-65
2021/05/24 07:04:30;;;;;;;1.77;1.00;;;;;;;13.33;69.23;98119.59;5060666;28;20090;-65
2021/05/24 07:06:56;;;;;;;2.17;0.77;;;;;;;13.76;64.79;98124.94;5064146;28;20247;-65
2021/05/24 07:09:21;;;;;;;3.30;0.93;;;;;;;14.11;64.75;98117.25;5059281;28;20235;-65
2021/05/24 07:11:47;;;;;;;3.10;0.75;;;;;;;14.59;62.08;98127.63;5044103;28;20029;-65
2021/05/24 07:14:13;;;;;;;1.65;0.70;;;;;;;14.94;60.01;98126.94;5063962;28;20040;-65
2021/05/24 07:16:39;;;;;;;2.05;0.88;;;;;;;15.10;62.21;98130.59;5062340;28;20021;-65
2021/05/24 07:19:05;;;;;;;1.75;0.68;;;;;;;15.15;61.66;98131.25;5046166;28;20043;-65
2021/05/24 07:21:30;;;;;;;1.58;0.77;;;;;;;15.18;58.34;98130.25;5048984;28;20013;-65
2021/05/24 07:23:56;;;;;;;1.98;0.82;;;;;;;15.29;59.92;98142.09;5057537;28;20346;-65
2021/05/24 07:26:22;;;;;;;1.25;0.65;;;;;;;15.71;57.08;98125.97;5047457;28;20220;-65
2021/05/24 07:28:48;;;;;;;8.23;0.88;;;;;;;16.37;59.46;98123.56;5048852;28;20096;-65
2021/05/24 07:31:13;;;;;;;2.65;0.80;;;;;;;16.80;56.35;98117.78;5056512;28;20308;-65
2021/05/24 07:33:38;;;;;;;3.72;0.73;;;;;;;16.96;58.41;98123.16;5050001;28;20326;-65
2021/05/24 07:36:05;;;;;;;2.20;0.80;;;;;;;16.84;54.12;98129.13;5049554;28;20024;-65
2021/05/24 07:38:30;;;;;;;1.88;0.50;;;;;;;16.98;52.41;98127.44;5048342;28;20076;-65
2021/05/24 07:40:55;;;;;;;3.05;0.75;;;;;;;17.54;52.21;98116.44;5047656;28;20018;-64
2021/05/24 07:43:21;;;;;;;3.35;0.65;;;;;;;17.73;47.78;98126.91;5044313;28;20021;-65
2021/05/24 07:45:46;;;;;;;2.08;0.63;;;;;;;17.36;48.36;98116.53;5043570;28;20021;-64
2021/05/24 07:48:12;;;;;;;1.55;0.57;;;;;;;18.39;50.90;98117.78;5065411;28;20049;-64
2021/05/24 07:50:37;;;;;;;2.28;0.70;;;;;;;18.65;48.44;98122.41;5062643;28;20028;-64
2021/05/24 07:53:02;;;;;;;3.42;0.73;;;;;;;18.91;44.77;98111.03;5062912;28;20031;-64
2021/05/24 07:55:28;;;;;;;1.90;0.70;;;;;;;19.16;44.58;98116.59;5062311;28;20323;-64
2021/05/24 07:57:53;;;;;;;2.65;0.65;;;;;;;18.83;45.06;98108.00;5046355;28;20180;-64
2021/05/24 08:00:20;;;;;;;3.40;0.85;;;;;;;18.22;46.00;98109.88;5056850;28;20020;-64
2021/05/24 08:02:45;;;;;;;3.90;0.88;;;;;;;20.31;45.71;98126.94;5056521;28;20036;-64
2021/05/24 08:05:14;;;;;;;1.33;0.52;;;;;;;21.33;40.77;98109.13;5051868;28;20029;-64
2021/05/24 08:07:40;;;;;;;6.95;0.70;;;;;;;20.44;40.72;98117.13;5062253;28;20043;-64
2021/05/24 08:10:09;;;;;;;2.35;0.65;;;;;;;19.48;42.12;98112.78;5075557;28;20036;-64
2021/05/24 08:12:37;;;;;;;5.43;0.88;;;;;;;19.15;43.70;98104.22;5075155;28;20316;-64
2021/05/24 08:15:07;;;;;;;0.70;0.50;;;;;;;18.45;45.25;98106.75;5057230;28;20017;-64
2021/05/24 08:17:32;;;;;;;1.88;0.60;;;;;;;18.69;44.35;98094.63;5049669;28;20328;-65
2021/05/24 08:19:58;;;;;;;3.78;0.50;;;;;;;18.42;44.72;98093.63;5044980;28;20013;-65
2021/05/24 08:22:23;;;;;;;2.67;0.70;;;;;;;19.06;45.85;98089.63;5055866;28;20063;-64
2021/05/24 08:24:49;;;;;;;2.58;0.80;;;;;;;19.11;44.07;98081.34;5062796;28;20033;-64
2021/05/24 08:27:14;;;;;;;2.92;0.70;;;;;;;18.52;44.69;98081.44;5062124;28;20043;-64
2021/05/24 08:29:39;;;;;;;1.25;0.50;;;;;;;18.92;46.42;98075.44;5066765;28;20017;-64
2021/05/24 08:32:05;;;;;;;1.85;0.90;;;;;;;19.61;44.79;98060.34;5065321;28;20040;-64
2021/05/24 08:34:30;;;;;;;3.63;0.70;;;;;;;19.19;42.88;98063.91;5066963;28;20020;-64
2021/05/24 08:36:56;;;;;;;1.98;0.50;;;;;;;19.17;42.60;98062.25;5066873;28;20041;-64
2021/05/24 08:39:21;;;;;;;2.25;0.70;;;;;;;19.47;44.39;98055.03;5066839;28;20021;-64
2021/05/24 08:41:48;;;;;;;2.67;0.85;;;;;;;19.29;43.07;98061.53;5062734;28;20021;-64
2021/05/24 08:44:14;;;;;;;2.53;0.60;;;;;;;19.39;43.81;98059.16;5066666;28;20025;-67
2021/05/24 08:46:40;;;;;;;1.90;0.60;;;;;;;19.68;43.82;98056.31;5066410;28;20091;-65
2021/05/24 08:49:05;;;;;;;1.77;0.60;;;;;;;19.72;42.25;98052.50;5062162;28;20013;-65
2021/05/24 08:51:31;;;;;;;2.13;0.68;;;;;;;19.63;42.45;98042.41;5055478;28;20041;-66
2021/05/24 08:53:57;;;;;;;2.75;0.75;;;;;;;19.88;44.43;98042.53;5066596;28;20023;-65
2021/05/24 08:56:22;;;;;;;1.88;0.60;;;;;;;20.39;42.24;98040.88;5066531;28;20059;-65
2021/05/24 08:58:48;;;;;;;3.38;1.00;;;;;;;20.31;41.05;98041.41;5066455;28;20048;-65
2021/05/24 09:01:13;;;;;;;2.95;0.73;;;;;;;20.55;40.07;98031.72;5064688;28;20021;-65
2021/05/24 09:03:41;;;;;;;2.45;0.90;;;;;;;20.69;41.06;98028.94;5064121;28;20025;-68
2021/05/24 09:06:09;;;;;;;4.25;0.70;;;;;;;21.22;40.71;98031.41;5066273;28;20331;-68
2021/05/24 09:08:42;;;;;;;2.58;0.63;;;;;;;20.87;41.14;98027.66;5065107;28;20323;-69
2021/05/24 09:11:26;;;;;;;2.42;0.75;;;;;;;21.45;41.68;98031.59;5066303;28;20036;-68
2021/05/24 09:13:52;;;;;;;2.72;0.90;;;;;;;21.21;41.63;98032.41;5066241;28;20063;-67
2021/05/24 09:16:26;;;;;;;2.20;0.70;;;;;;;20.82;42.24;98027.13;5064560;28;20016;-68
2021/05/24 09:19:18;;;;;;;2.28;0.60;;;;;;;21.47;41.47;98024.28;5053887;28;20082;-69
2021/05/24 09:21:57;;;;;;;5.82;0.65;;;;;;;21.28;40.66;98025.63;5073678;28;20063;-69
2021/05/24 09:24:38;;;;;;;2.45;0.65;;;;;;;22.01;40.09;98010.41;5064958;28;20045;-69
2021/05/24 09:27:22;;;;;;;1.63;0.53;;;;;;;22.05;41.24;98017.22;5049445;28;20018;-68
2021/05/24 09:29:48;;;;;;;3.20;0.90;;;;;;;22.19;41.03;98010.84;5086031;28;20343;-69
2021/05/24 09:32:24;;;;;;;4.57;0.73;;;;;;;22.36;41.77;98013.94;5062310;28;20029;-68
2021/05/24 09:34:50;;;;;;;3.20;0.77;;;;;;;21.80;41.14;98005.78;5053361;28;20080;-68
2021/05/24 09:37:18;;;;;;;4.68;0.75;;;;;;;22.41;40.98;98009.09;5070422;28;20324;-68
2021/05/24 09:39:44;;;;;;;2.53;0.80;;;;;;;22.85;40.75;98008.38;5058058;28;20025;-64
2021/05/24 09:42:14;;;;;;;2.78;0.75;;;;;;;23.06;38.06;98006.66;5055936;28;20024;-64
2021/05/24 09:44:54;;;;;;;3.88;0.90;;;;;;;23.25;39.01;97996.19;5058192;28;20018;-64
2021/05/24 09:47:37;;;;;;;1.70;0.57;;;;;;;23.59;38.79;97988.94;5048913;28;20088;-64
2021/05/24 09:50:21;;;;;;;1.73;0.57;;;;;;;24.20;37.19;97991.81;5059177;28;20083;-64
2021/05/24 09:52:48;;;;;;;2.30;0.60;;;;;;;24.35;36.37;97990.53;5068080;28;20036;-64
2021/05/24 09:55:13;;;;;;;2.78;0.80;;;;;;;24.43;35.47;97988.03;5085403;28;20334;-64
2021/05/24 09:58:01;;;;;;;1.58;0.77;;;;;;;23.84;36.37;97994.00;5072048;28;20025;-64
2021/05/24 10:03:09;;;;;;;2.83;0.60;;;;;;;23.35;38.22;97991.81;5050325;28;20029;-64
2021/05/24 10:05:48;;;;;;;3.58;0.75;;;;;;;23.47;37.37;97990.78;5049627;28;20021;-63
2021/05/24 10:08:13;;;;;;;2.53;0.73;;;;;;;22.59;38.66;97988.09;5049795;28;20017;-64
2021/05/24 10:10:41;;;;;;;3.65;1.00;;;;;;;22.40;38.31;97985.09;5050736;28;20067;-64
2021/05/24 10:13:06;;;;;;;1.10;0.50;;;;;;;23.23;38.79;97977.50;5049764;28;20106;-64
2021/05/24 10:15:35;;;;;;;0.73;0.30;;;;;;;23.45;39.16;97973.97;5053646;28;20017;-64
2021/05/24 10:18:02;;;;;;;2.72;0.50;;;;;;;23.13;38.90;97975.69;5051833;28;20021;-64
2021/05/24 10:20:28;;;;;;;0.63;0.40;;;;;;;22.77;38.72;97974.06;5049199;28;20028;-64
2021/05/24 10:22:53;;;;;;;1.75;0.52;;;;;;;22.63;40.62;97976.13;5057020;28;20025;-64
2021/05/24 10:25:19;;;;;;;1.45;0.50;;;;;;;22.86;39.03;97964.44;5049621;28;20051;-64
2021/05/24 10:27:45;;;;;;;4.28;0.60;;;;;;;23.65;40.48;97951.69;5056865;28;20371;-64
2021/05/24 10:30:12;;;;;;;2.38;0.52;;;;;;;23.58;38.64;97955.88;5058585;28;20033;-64
2021/05/24 10:32:52;;;;;;;1.98;0.50;;;;;;;23.11;37.60;97956.16;5049306;28;20043;-64
2021/05/24 10:35:31;;;;;;;4.07;0.77;;;;;;;22.95;40.28;97955.66;5058244;28;20018;-64
2021/05/24 10:37:56;;;;;;;3.33;0.60;;;;;;;23.35;38.85;97948.84;5059520;28;20021;-64
2021/05/24 10:40:22;;;;;;;1.60;0.40;;;;;;;23.32;36.28;97927.59;5058107;28;20041;-64
2021/05/24 10:42:47;;;;;;;2.08;0.57;;;;;;;23.77;39.21;97934.56;5056967;28;20020;-64
2021/05/24 10:45:24;;;;;;;2.63;0.60;;;;;;;23.23;40.27;97934.56;5057242;28;20040;-64
2021/05/24 10:47:55;;;;;;;2.30;0.68;;;;;;;23.88;39.49;97934.50;5051770;28;20219;-64
2021/05/24 10:50:22;;;;;;;1.58;0.43;;;;;;;23.96;36.33;97933.88;5047460;28;20028;-64
2021/05/24 10:53:00;;;;;;;3.60;0.60;;;;;;;24.28;37.58;97919.44;5052042;28;20021;-64
2021/05/24 10:55:25;;;;;;;1.75;0.55;;;;;;;24.44;36.11;97925.19;5051596;28;20035;-64
2021/05/24 10:57:55;;;;;;;3.60;0.57;;;;;;;24.32;33.97;97926.25;5051985;28;20213;-64
2021/05/24 11:00:20;;;;;;;2.03;0.47;;;;;;;24.36;34.27;97916.91;5049702;28;20029;-64
2021/05/24 11:02:51;;;;;;;2.38;0.52;;;;;;;23.65;33.76;97914.06;5048752;28;20211;-64
2021/05/24 11:05:29;;;;;;;1.77;0.80;;;;;;;23.80;33.60;97918.19;5050667;28;20078;-64
2021/05/24 11:07:59;;;;;;;3.60;0.50;;;;;;;23.90;33.99;97924.47;5053314;28;20328;-64
2021/05/24 11:10:30;;;;;;;0.75;0.40;;;;;;;23.75;33.67;97925.75;5051393;28;20273;-64
2021/05/24 11:13:17;;;;;;;2.58;0.65;;;;;;;23.99;32.95;97913.00;5053509;28;20029;-64
2021/05/24 11:15:44;;;;;;;1.33;0.50;;;;;;;24.25;31.91;97911.63;5050617;28;20097;-64
2021/05/24 11:18:19;;;;;;;0.60;0.40;;;;;;;23.79;32.19;97904.88;5055176;28;20084;-64
2021/05/24 11:21:15;;;;;;;2.15;0.50;;;;;;;23.82;32.17;97894.69;5059017;28;20029;-64
2021/05/24 11:26:11;;;;;;;2.78;0.70;;;;;;;23.93;36.12;97891.97;5060250;28;20090;-64
2021/05/24 11:28:51;;;;;;;1.52;0.50;;;;;;;23.83;31.90;97901.78;5064349;28;20029;-64
2021/05/24 11:31:22;;;;;;;2.40;0.50;;;;;;;23.72;33.00;97893.75;5050351;28;20032;-64
2021/05/24 11:33:48;;;;;;;0.73;0.32;;;;;;;23.82;31.79;97894.69;5048506;28;20075;-64
2021/05/24 11:36:40;;;;;;;1.38;0.40;;;;;;;23.71;34.64;97881.31;5053916;28;20045;-64
2021/05/24 11:39:15;;;;;;;2.30;0.60;;;;;;;23.71;35.76;97886.69;5052161;28;20053;-64
2021/05/24 11:41:44;;;;;;;3.45;0.60;;;;;;;23.03;36.50;97875.38;5051338;28;20017;-64
2021/05/24 11:44:10;;;;;;;2.53;0.60;;;;;;;22.92;36.60;97875.41;5049625;28;20021;-64